Terminal Aerodrome Forecast
Issued by NWS Mt. Holly, NJ

Home | Current Version | Previous Version | Text Only | Print | Product List | Glossary On
Versions: 1 2 3 4 5 6 7 8 9 10 11 12 13 14 15 16 17 18 19
000
FTUS41 KPHI 280522
TAFABE
TAF
KABE 280522Z 2806/2906 21003KT 1SM BR FEW200
      TEMPO 2806/2810 1/4SM FG VV003
     FM281100 23003KT 3SM BR SCT200
     FM281500 26007KT P6SM FEW025 SCT050
     FM282100 33005KT P6SM SCT200=

USA.gov is the U.S. government's official web portal to all federal, state and local government web resources and services.